This is the latest recevied weather packets stored in our database for station/object KD5GAT-51. If no packets are shown the sender has not sent any weather packets the latest 10 day(s).
| Time | Temp. | Humidity | Pressure | Rain* | Wind** | Luminosity | Snow |
|---|---|---|---|---|---|---|---|
| 1778031638 | 28.33° C | 99% | 1008.6 hPa | - | - | - | - |
| 1778030738 | 28.89° C | 95% | 1008.5 hPa | - | - | - | - |
| 1778029838 | 29.44° C | 88% | 1008.2 hPa | - | - | - | - |
| 1778028937 | 29.44° C | 85% | 1007.9 hPa | - | - | - | - |
| 1778028037 | 30° C | 80% | 1007.9 hPa | - | - | - | - |
| 1778027137 | 31.11° C | 72% | 1007.8 hPa | - | - | - | - |
| 1778026237 | 32.78° C | 64% | 1007.9 hPa | - | - | - | - |
| 1778025337 | 33.33° C | 61% | 1007.7 hPa | - | - | - | - |
| 1778024436 | 33.33° C | 59% | 1007.6 hPa | - | - | - | - |
| 1778023536 | 33.89° C | 56% | 1007.6 hPa | - | - | - | - |
| 1778022636 | 35° C | 51% | 1007.6 hPa | - | - | - | - |
| 1778021736 | 35° C | 52% | 1007.5 hPa | - | - | - | - |
| 1778020836 | 35.56° C | 51% | 1007.4 hPa | - | - | - | - |
| 1778019935 | 34.44° C | 54% | 1007.7 hPa | - | - | - | - |
| 1778019035 | 35° C | 52% | 1007.8 hPa | - | - | - | - |
| 1778018143 | 35° C | 52% | 1007.9 hPa | - | - | - | - |
| 1778017243 | 35° C | 52% | 1008.2 hPa | - | - | - | - |
| 1778016342 | 34.44° C | 54% | 1008.4 hPa | - | - | - | - |
| 1778015442 | 35.56° C | 51% | 1008.6 hPa | - | - | - | - |
| 1778014542 | 34.44° C | 52% | 1008.8 hPa | - | - | - | - |
| 1778013642 | 33.89° C | 56% | 1009.1 hPa | - | - | - | - |
| 1778012742 | 34.44° C | 53% | 1009.6 hPa | - | - | - | - |
| 1778011842 | 33.89° C | 56% | 1009.5 hPa | - | - | - | - |
| 1778010941 | 32.78° C | 62% | 1009.8 hPa | - | - | - | - |
| 1778010041 | 32.78° C | 61% | 1009.9 hPa | - | - | - | - |
* Rain since midnight (hover to see other rain measurements)
** Current wind speed in m/s (hover to see current wind gust speed)